sensor_id;sensor_type;location;lat;lon;timestamp;P1;durP1;ratioP1;P2;durP2;ratioP2
14121;SDS011;7139;48.114;11.442;2023-05-07T00:01:37;4.00;;;3.57;;
14121;SDS011;7139;48.114;11.442;2023-05-07T00:04:04;3.80;;;3.50;;
14121;SDS011;7139;48.114;11.442;2023-05-07T00:06:32;3.90;;;3.50;;
14121;SDS011;7139;48.114;11.442;2023-05-07T00:08:59;4.10;;;3.67;;
14121;SDS011;7139;48.114;11.442;2023-05-07T00:11:26;6.27;;;3.47;;
14121;SDS011;7139;48.114;11.442;2023-05-07T00:13:53;3.90;;;3.60;;
14121;SDS011;7139;48.114;11.442;2023-05-07T00:16:20;3.57;;;3.27;;
14121;SDS011;7139;48.114;11.442;2023-05-07T00:18:48;4.70;;;3.53;;
14121;SDS011;7139;48.114;11.442;2023-05-07T00:21:15;4.40;;;3.70;;
14121;SDS011;7139;48.114;11.442;2023-05-07T00:23:42;3.73;;;3.33;;
14121;SDS011;7139;48.114;11.442;2023-05-07T00:26:08;4.00;;;3.47;;
14121;SDS011;7139;48.114;11.442;2023-05-07T00:28:35;5.67;;;3.60;;
14121;SDS011;7139;48.114;11.442;2023-05-07T00:31:02;4.50;;;3.50;;
14121;SDS011;7139;48.114;11.442;2023-05-07T00:33:29;4.43;;;3.17;;
14121;SDS011;7139;48.114;11.442;2023-05-07T00:35:57;3.80;;;3.50;;
14121;SDS011;7139;48.114;11.442;2023-05-07T00:38:26;4.13;;;3.30;;
14121;SDS011;7139;48.114;11.442;2023-05-07T00:40:52;3.77;;;3.40;;
14121;SDS011;7139;48.114;11.442;2023-05-07T00:43:19;3.50;;;3.20;;
14121;SDS011;7139;48.114;11.442;2023-05-07T00:45:46;4.20;;;3.43;;
14121;SDS011;7139;48.114;11.442;2023-05-07T00:48:13;6.03;;;3.67;;
14121;SDS011;7139;48.114;11.442;2023-05-07T00:50:40;4.07;;;3.40;;
14121;SDS011;7139;48.114;11.442;2023-05-07T00:53:08;4.60;;;3.60;;
14121;SDS011;7139;48.114;11.442;2023-05-07T00:55:35;3.77;;;3.47;;
14121;SDS011;7139;48.114;11.442;2023-05-07T00:58:02;3.60;;;3.30;;
14121;SDS011;7139;48.114;11.442;2023-05-07T01:00:29;4.00;;;3.60;;
14121;SDS011;7139;48.114;11.442;2023-05-07T01:02:56;3.83;;;3.30;;
14121;SDS011;7139;48.114;11.442;2023-05-07T01:05:23;4.03;;;3.50;;
14121;SDS011;7139;48.114;11.442;2023-05-07T01:07:51;3.93;;;3.50;;
14121;SDS011;7139;48.114;11.442;2023-05-07T01:10:21;3.77;;;3.47;;
14121;SDS011;7139;48.114;11.442;2023-05-07T01:12:48;3.77;;;3.47;;
14121;SDS011;7139;48.114;11.442;2023-05-07T01:15:16;3.60;;;3.30;;
14121;SDS011;7139;48.114;11.442;2023-05-07T01:17:43;4.13;;;3.73;;
14121;SDS011;7139;48.114;11.442;2023-05-07T01:20:10;3.93;;;3.57;;
14121;SDS011;7139;48.114;11.442;2023-05-07T01:22:40;5.33;;;3.80;;
14121;SDS011;7139;48.114;11.442;2023-05-07T01:25:07;3.97;;;3.63;;
14121;SDS011;7139;48.114;11.442;2023-05-07T01:27:34;3.97;;;3.57;;
14121;SDS011;7139;48.114;11.442;2023-05-07T01:30:02;3.93;;;3.60;;
14121;SDS011;7139;48.114;11.442;2023-05-07T01:32:31;4.00;;;3.70;;
14121;SDS011;7139;48.114;11.442;2023-05-07T01:35:00;4.27;;;3.47;;
14121;SDS011;7139;48.114;11.442;2023-05-07T01:37:28;4.03;;;3.63;;
14121;SDS011;7139;48.114;11.442;2023-05-07T01:39:57;5.23;;;4.10;;
14121;SDS011;7139;48.114;11.442;2023-05-07T01:42:24;4.03;;;3.60;;
14121;SDS011;7139;48.114;11.442;2023-05-07T01:44:50;3.80;;;3.50;;
14121;SDS011;7139;48.114;11.442;2023-05-07T01:47:17;3.70;;;3.40;;
14121;SDS011;7139;48.114;11.442;2023-05-07T01:49:45;3.93;;;3.30;;
14121;SDS011;7139;48.114;11.442;2023-05-07T01:52:11;4.63;;;3.33;;
14121;SDS011;7139;48.114;11.442;2023-05-07T01:54:38;3.90;;;3.60;;
14121;SDS011;7139;48.114;11.442;2023-05-07T01:57:06;4.80;;;3.40;;
14121;SDS011;7139;48.114;11.442;2023-05-07T01:59:33;4.00;;;3.70;;
14121;SDS011;7139;48.114;11.442;2023-05-07T02:02:00;4.93;;;3.60;;
14121;SDS011;7139;48.114;11.442;2023-05-07T02:04:26;4.47;;;3.70;;
14121;SDS011;7139;48.114;11.442;2023-05-07T02:06:53;4.37;;;3.47;;
14121;SDS011;7139;48.114;11.442;2023-05-07T02:09:20;4.20;;;3.77;;
14121;SDS011;7139;48.114;11.442;2023-05-07T02:11:47;3.60;;;3.30;;
14121;SDS011;7139;48.114;11.442;2023-05-07T02:14:16;4.10;;;3.80;;
14121;SDS011;7139;48.114;11.442;2023-05-07T02:16:42;3.80;;;3.50;;
14121;SDS011;7139;48.114;11.442;2023-05-07T02:19:09;5.03;;;3.87;;
14121;SDS011;7139;48.114;11.442;2023-05-07T02:21:36;5.50;;;3.53;;
14121;SDS011;7139;48.114;11.442;2023-05-07T02:24:03;4.10;;;3.70;;
14121;SDS011;7139;48.114;11.442;2023-05-07T02:26:30;4.37;;;3.70;;
14121;SDS011;7139;48.114;11.442;2023-05-07T02:28:56;3.93;;;3.63;;
14121;SDS011;7139;48.114;11.442;2023-05-07T02:31:24;4.10;;;3.80;;
14121;SDS011;7139;48.114;11.442;2023-05-07T02:33:51;4.00;;;3.60;;
14121;SDS011;7139;48.114;11.442;2023-05-07T02:36:18;5.17;;;4.13;;
14121;SDS011;7139;48.114;11.442;2023-05-07T02:38:45;5.23;;;3.90;;
14121;SDS011;7139;48.114;11.442;2023-05-07T02:41:11;5.47;;;3.53;;
14121;SDS011;7139;48.114;11.442;2023-05-07T02:43:38;4.10;;;3.70;;
14121;SDS011;7139;48.114;11.442;2023-05-07T02:46:05;5.23;;;3.70;;
14121;SDS011;7139;48.114;11.442;2023-05-07T02:48:34;4.87;;;3.50;;
14121;SDS011;7139;48.114;11.442;2023-05-07T02:51:01;4.27;;;3.87;;
14121;SDS011;7139;48.114;11.442;2023-05-07T02:53:30;4.77;;;3.80;;
14121;SDS011;7139;48.114;11.442;2023-05-07T02:55:57;3.80;;;3.43;;
14121;SDS011;7139;48.114;11.442;2023-05-07T02:58:25;4.53;;;3.90;;
14121;SDS011;7139;48.114;11.442;2023-05-07T03:00:52;3.73;;;3.40;;
14121;SDS011;7139;48.114;11.442;2023-05-07T03:03:19;4.93;;;3.67;;
14121;SDS011;7139;48.114;11.442;2023-05-07T03:05:47;3.90;;;3.57;;
14121;SDS011;7139;48.114;11.442;2023-05-07T03:08:14;3.90;;;3.60;;
14121;SDS011;7139;48.114;11.442;2023-05-07T03:10:41;5.13;;;3.77;;
14121;SDS011;7139;48.114;11.442;2023-05-07T03:13:08;4.73;;;3.77;;
14121;SDS011;7139;48.114;11.442;2023-05-07T03:15:34;5.57;;;3.70;;
14121;SDS011;7139;48.114;11.442;2023-05-07T03:18:01;7.47;;;3.57;;
14121;SDS011;7139;48.114;11.442;2023-05-07T03:20:28;5.83;;;3.47;;
14121;SDS011;7139;48.114;11.442;2023-05-07T03:22:56;4.00;;;3.70;;
14121;SDS011;7139;48.114;11.442;2023-05-07T03:25:23;4.17;;;3.77;;
14121;SDS011;7139;48.114;11.442;2023-05-07T03:27:50;3.83;;;3.40;;
14121;SDS011;7139;48.114;11.442;2023-05-07T03:30:16;4.10;;;3.63;;
14121;SDS011;7139;48.114;11.442;2023-05-07T03:32:43;3.97;;;3.63;;
14121;SDS011;7139;48.114;11.442;2023-05-07T03:35:10;3.70;;;3.40;;
14121;SDS011;7139;48.114;11.442;2023-05-07T03:37:37;3.80;;;3.50;;
14121;SDS011;7139;48.114;11.442;2023-05-07T03:40:06;4.20;;;3.80;;
14121;SDS011;7139;48.114;11.442;2023-05-07T03:42:35;4.57;;;3.60;;
14121;SDS011;7139;48.114;11.442;2023-05-07T03:45:02;4.20;;;3.73;;
14121;SDS011;7139;48.114;11.442;2023-05-07T03:47:29;4.30;;;3.60;;
14121;SDS011;7139;48.114;11.442;2023-05-07T03:49:56;5.87;;;3.90;;
14121;SDS011;7139;48.114;11.442;2023-05-07T03:52:22;4.83;;;4.10;;
14121;SDS011;7139;48.114;11.442;2023-05-07T03:54:51;4.83;;;3.90;;
14121;SDS011;7139;48.114;11.442;2023-05-07T03:57:19;3.87;;;3.57;;
14121;SDS011;7139;48.114;11.442;2023-05-07T03:59:46;3.73;;;3.43;;
14121;SDS011;7139;48.114;11.442;2023-05-07T04:02:13;5.00;;;3.90;;
14121;SDS011;7139;48.114;11.442;2023-05-07T04:04:39;4.20;;;3.50;;
14121;SDS011;7139;48.114;11.442;2023-05-07T04:07:06;4.20;;;3.90;;
14121;SDS011;7139;48.114;11.442;2023-05-07T04:09:33;4.60;;;4.10;;
14121;SDS011;7139;48.114;11.442;2023-05-07T04:12:00;4.60;;;3.40;;
14121;SDS011;7139;48.114;11.442;2023-05-07T04:14:28;4.57;;;4.17;;
14121;SDS011;7139;48.114;11.442;2023-05-07T04:16:57;4.07;;;3.73;;
14121;SDS011;7139;48.114;11.442;2023-05-07T04:19:24;5.97;;;4.00;;
14121;SDS011;7139;48.114;11.442;2023-05-07T04:21:50;4.47;;;4.10;;
14121;SDS011;7139;48.114;11.442;2023-05-07T04:24:17;4.40;;;4.00;;
14121;SDS011;7139;48.114;11.442;2023-05-07T04:26:44;3.90;;;3.50;;
14121;SDS011;7139;48.114;11.442;2023-05-07T04:29:11;5.30;;;3.97;;
14121;SDS011;7139;48.114;11.442;2023-05-07T04:31:39;4.03;;;3.73;;
14121;SDS011;7139;48.114;11.442;2023-05-07T04:34:05;4.33;;;4.00;;
14121;SDS011;7139;48.114;11.442;2023-05-07T04:36:32;4.60;;;4.20;;
14121;SDS011;7139;48.114;11.442;2023-05-07T04:38:59;4.70;;;4.23;;
14121;SDS011;7139;48.114;11.442;2023-05-07T04:41:26;4.47;;;4.07;;
14121;SDS011;7139;48.114;11.442;2023-05-07T04:43:53;4.23;;;3.90;;
14121;SDS011;7139;48.114;11.442;2023-05-07T04:46:20;4.50;;;4.10;;
14121;SDS011;7139;48.114;11.442;2023-05-07T04:48:48;6.10;;;3.53;;
14121;SDS011;7139;48.114;11.442;2023-05-07T04:51:15;4.20;;;3.90;;
14121;SDS011;7139;48.114;11.442;2023-05-07T04:53:41;4.10;;;3.80;;
14121;SDS011;7139;48.114;11.442;2023-05-07T04:56:08;4.40;;;3.80;;
14121;SDS011;7139;48.114;11.442;2023-05-07T04:58:35;6.27;;;3.87;;
14121;SDS011;7139;48.114;11.442;2023-05-07T05:01:02;4.17;;;3.87;;
14121;SDS011;7139;48.114;11.442;2023-05-07T05:03:29;5.43;;;3.80;;
14121;SDS011;7139;48.114;11.442;2023-05-07T05:05:57;4.73;;;3.90;;
14121;SDS011;7139;48.114;11.442;2023-05-07T05:08:25;6.03;;;3.93;;
14121;SDS011;7139;48.114;11.442;2023-05-07T05:10:51;4.43;;;4.03;;
14121;SDS011;7139;48.114;11.442;2023-05-07T05:13:18;5.30;;;4.13;;
14121;SDS011;7139;48.114;11.442;2023-05-07T05:15:46;4.07;;;3.67;;
14121;SDS011;7139;48.114;11.442;2023-05-07T05:18:12;5.60;;;4.10;;
14121;SDS011;7139;48.114;11.442;2023-05-07T05:20:39;4.10;;;3.50;;
14121;SDS011;7139;48.114;11.442;2023-05-07T05:23:07;4.90;;;3.33;;
14121;SDS011;7139;48.114;11.442;2023-05-07T05:25:34;3.93;;;3.53;;
14121;SDS011;7139;48.114;11.442;2023-05-07T05:28:02;4.50;;;3.80;;
14121;SDS011;7139;48.114;11.442;2023-05-07T05:30:29;3.60;;;3.40;;
14121;SDS011;7139;48.114;11.442;2023-05-07T05:32:55;3.97;;;3.57;;
14121;SDS011;7139;48.114;11.442;2023-05-07T05:35:22;4.23;;;3.80;;
14121;SDS011;7139;48.114;11.442;2023-05-07T05:37:49;5.57;;;4.10;;
14121;SDS011;7139;48.114;11.442;2023-05-07T05:40:17;4.70;;;3.80;;
14121;SDS011;7139;48.114;11.442;2023-05-07T05:42:44;4.00;;;3.60;;
14121;SDS011;7139;48.114;11.442;2023-05-07T05:45:11;4.03;;;3.73;;
14121;SDS011;7139;48.114;11.442;2023-05-07T05:47:37;3.73;;;3.50;;
14121;SDS011;7139;48.114;11.442;2023-05-07T05:50:05;4.20;;;3.80;;
14121;SDS011;7139;48.114;11.442;2023-05-07T05:52:33;3.87;;;3.57;;
14121;SDS011;7139;48.114;11.442;2023-05-07T05:54:59;4.20;;;3.80;;
14121;SDS011;7139;48.114;11.442;2023-05-07T05:57:27;4.70;;;3.90;;
14121;SDS011;7139;48.114;11.442;2023-05-07T05:59:54;4.27;;;3.77;;
14121;SDS011;7139;48.114;11.442;2023-05-07T06:02:21;4.00;;;3.70;;
14121;SDS011;7139;48.114;11.442;2023-05-07T06:04:48;4.37;;;3.67;;
14121;SDS011;7139;48.114;11.442;2023-05-07T06:07:15;5.70;;;4.00;;
14121;SDS011;7139;48.114;11.442;2023-05-07T06:09:41;4.40;;;4.10;;
14121;SDS011;7139;48.114;11.442;2023-05-07T06:12:08;3.87;;;3.57;;
14121;SDS011;7139;48.114;11.442;2023-05-07T06:14:36;4.13;;;3.83;;
14121;SDS011;7139;48.114;11.442;2023-05-07T06:17:03;5.30;;;4.80;;
14121;SDS011;7139;48.114;11.442;2023-05-07T06:19:30;4.90;;;4.40;;
14121;SDS011;7139;48.114;11.442;2023-05-07T06:21:57;5.93;;;4.83;;
14121;SDS011;7139;48.114;11.442;2023-05-07T06:24:23;5.20;;;4.60;;
14121;SDS011;7139;48.114;11.442;2023-05-07T06:26:50;5.47;;;4.60;;
14121;SDS011;7139;48.114;11.442;2023-05-07T06:29:17;5.07;;;4.67;;
14121;SDS011;7139;48.114;11.442;2023-05-07T06:31:45;6.20;;;5.20;;
14121;SDS011;7139;48.114;11.442;2023-05-07T06:34:12;5.37;;;4.87;;
14121;SDS011;7139;48.114;11.442;2023-05-07T06:36:40;5.23;;;4.47;;
14121;SDS011;7139;48.114;11.442;2023-05-07T06:39:06;4.40;;;4.00;;
14121;SDS011;7139;48.114;11.442;2023-05-07T06:41:33;5.93;;;4.60;;
14121;SDS011;7139;48.114;11.442;2023-05-07T06:44:00;5.03;;;4.57;;
14121;SDS011;7139;48.114;11.442;2023-05-07T06:46:27;4.53;;;4.13;;
14121;SDS011;7139;48.114;11.442;2023-05-07T06:48:56;4.47;;;4.07;;
14121;SDS011;7139;48.114;11.442;2023-05-07T06:51:23;4.77;;;4.33;;
14121;SDS011;7139;48.114;11.442;2023-05-07T06:53:50;4.13;;;3.80;;
14121;SDS011;7139;48.114;11.442;2023-05-07T06:56:17;3.60;;;3.30;;
14121;SDS011;7139;48.114;11.442;2023-05-07T06:58:44;3.60;;;3.30;;
14121;SDS011;7139;48.114;11.442;2023-05-07T07:01:10;4.77;;;3.47;;
14121;SDS011;7139;48.114;11.442;2023-05-07T07:03:37;4.27;;;3.70;;
14121;SDS011;7139;48.114;11.442;2023-05-07T07:06:05;3.70;;;3.40;;
14121;SDS011;7139;48.114;11.442;2023-05-07T07:08:32;4.20;;;2.90;;
14121;SDS011;7139;48.114;11.442;2023-05-07T07:10:59;3.20;;;3.00;;
14121;SDS011;7139;48.114;11.442;2023-05-07T07:13:26;3.70;;;3.37;;
14121;SDS011;7139;48.114;11.442;2023-05-07T07:15:52;3.47;;;3.13;;
14121;SDS011;7139;48.114;11.442;2023-05-07T07:18:19;3.93;;;3.30;;
14121;SDS011;7139;48.114;11.442;2023-05-07T07:20:46;4.03;;;3.17;;
14121;SDS011;7139;48.114;11.442;2023-05-07T07:23:14;3.23;;;2.93;;
14121;SDS011;7139;48.114;11.442;2023-05-07T07:25:41;3.83;;;3.23;;
14121;SDS011;7139;48.114;11.442;2023-05-07T07:28:08;3.60;;;3.30;;
14121;SDS011;7139;48.114;11.442;2023-05-07T07:30:35;3.93;;;3.20;;
14121;SDS011;7139;48.114;11.442;2023-05-07T07:33:02;3.63;;;3.20;;
14121;SDS011;7139;48.114;11.442;2023-05-07T07:35:30;4.73;;;3.17;;
14121;SDS011;7139;48.114;11.442;2023-05-07T07:37:57;3.50;;;3.20;;
14121;SDS011;7139;48.114;11.442;2023-05-07T07:40:25;3.40;;;3.10;;
14121;SDS011;7139;48.114;11.442;2023-05-07T07:42:52;3.63;;;3.30;;
14121;SDS011;7139;48.114;11.442;2023-05-07T07:45:19;3.50;;;3.17;;
14121;SDS011;7139;48.114;11.442;2023-05-07T07:47:46;3.73;;;3.10;;
14121;SDS011;7139;48.114;11.442;2023-05-07T07:50:13;4.30;;;3.07;;
14121;SDS011;7139;48.114;11.442;2023-05-07T07:52:40;3.43;;;3.13;;
14121;SDS011;7139;48.114;11.442;2023-05-07T07:55:07;3.43;;;3.07;;
14121;SDS011;7139;48.114;11.442;2023-05-07T07:57:36;3.50;;;3.03;;
14121;SDS011;7139;48.114;11.442;2023-05-07T08:00:03;3.43;;;3.10;;
14121;SDS011;7139;48.114;11.442;2023-05-07T08:02:31;4.67;;;3.53;;
14121;SDS011;7139;48.114;11.442;2023-05-07T08:04:58;5.73;;;3.63;;
14121;SDS011;7139;48.114;11.442;2023-05-07T08:07:25;3.33;;;3.00;;
14121;SDS011;7139;48.114;11.442;2023-05-07T08:09:52;3.57;;;3.00;;
14121;SDS011;7139;48.114;11.442;2023-05-07T08:12:18;3.60;;;2.90;;
14121;SDS011;7139;48.114;11.442;2023-05-07T08:14:46;3.93;;;3.10;;
14121;SDS011;7139;48.114;11.442;2023-05-07T08:17:13;5.57;;;3.03;;
14121;SDS011;7139;48.114;11.442;2023-05-07T08:19:41;4.33;;;3.33;;
14121;SDS011;7139;48.114;11.442;2023-05-07T08:22:07;4.33;;;3.17;;
14121;SDS011;7139;48.114;11.442;2023-05-07T08:24:34;3.77;;;3.40;;
14121;SDS011;7139;48.114;11.442;2023-05-07T08:27:01;6.37;;;3.10;;
14121;SDS011;7139;48.114;11.442;2023-05-07T08:29:28;4.00;;;2.93;;
14121;SDS011;7139;48.114;11.442;2023-05-07T08:31:56;3.33;;;2.97;;
14121;SDS011;7139;48.114;11.442;2023-05-07T08:34:22;3.80;;;3.00;;
14121;SDS011;7139;48.114;11.442;2023-05-07T08:36:49;5.47;;;3.30;;
14121;SDS011;7139;48.114;11.442;2023-05-07T08:39:16;3.73;;;3.23;;
14121;SDS011;7139;48.114;11.442;2023-05-07T08:41:44;3.10;;;2.80;;
14121;SDS011;7139;48.114;11.442;2023-05-07T08:44:12;3.40;;;2.73;;
14121;SDS011;7139;48.114;11.442;2023-05-07T08:46:40;3.40;;;3.10;;
14121;SDS011;7139;48.114;11.442;2023-05-07T08:49:09;7.93;;;2.77;;
14121;SDS011;7139;48.114;11.442;2023-05-07T08:51:36;4.60;;;2.90;;
14121;SDS011;7139;48.114;11.442;2023-05-07T08:54:04;2.83;;;2.57;;
14121;SDS011;7139;48.114;11.442;2023-05-07T08:56:32;2.90;;;2.50;;
14121;SDS011;7139;48.114;11.442;2023-05-07T09:01:27;2.70;;;2.50;;
14121;SDS011;7139;48.114;11.442;2023-05-07T09:03:54;2.90;;;2.58;;
14121;SDS011;7139;48.114;11.442;2023-05-07T09:06:22;3.50;;;2.80;;
14121;SDS011;7139;48.114;11.442;2023-05-07T09:08:49;3.08;;;2.50;;
14121;SDS011;7139;48.114;11.442;2023-05-07T09:11:19;3.05;;;2.75;;
14121;SDS011;7139;48.114;11.442;2023-05-07T09:13:47;2.95;;;2.75;;
14121;SDS011;7139;48.114;11.442;2023-05-07T09:16:14;3.83;;;2.70;;
14121;SDS011;7139;48.114;11.442;2023-05-07T09:18:41;3.63;;;2.42;;
14121;SDS011;7139;48.114;11.442;2023-05-07T09:21:09;2.70;;;2.42;;
14121;SDS011;7139;48.114;11.442;2023-05-07T09:23:38;3.10;;;2.50;;
14121;SDS011;7139;48.114;11.442;2023-05-07T09:26:06;3.00;;;2.10;;
14121;SDS011;7139;48.114;11.442;2023-05-07T09:28:37;2.30;;;2.10;;
14121;SDS011;7139;48.114;11.442;2023-05-07T09:31:06;3.58;;;2.30;;
14121;SDS011;7139;48.114;11.442;2023-05-07T09:33:33;3.67;;;1.88;;
14121;SDS011;7139;48.114;11.442;2023-05-07T09:36:02;2.10;;;1.80;;
14121;SDS011;7139;48.114;11.442;2023-05-07T09:38:30;2.70;;;2.10;;
14121;SDS011;7139;48.114;11.442;2023-05-07T09:41:03;2.75;;;2.55;;
14121;SDS011;7139;48.114;11.442;2023-05-07T09:43:31;2.95;;;2.40;;
14121;SDS011;7139;48.114;11.442;2023-05-07T09:45:59;4.93;;;2.00;;
14121;SDS011;7139;48.114;11.442;2023-05-07T09:48:29;4.28;;;2.10;;
14121;SDS011;7139;48.114;11.442;2023-05-07T09:50:56;3.15;;;2.45;;
14121;SDS011;7139;48.114;11.442;2023-05-07T09:53:28;2.53;;;2.20;;
14121;SDS011;7139;48.114;11.442;2023-05-07T09:55:56;2.28;;;2.03;;
14121;SDS011;7139;48.114;11.442;2023-05-07T09:58:24;3.22;;;2.30;;
14121;SDS011;7139;48.114;11.442;2023-05-07T10:00:52;4.18;;;2.00;;
14121;SDS011;7139;48.114;11.442;2023-05-07T10:03:19;3.50;;;2.03;;
14121;SDS011;7139;48.114;11.442;2023-05-07T10:05:48;3.72;;;2.03;;
14121;SDS011;7139;48.114;11.442;2023-05-07T10:08:16;2.20;;;2.00;;
14121;SDS011;7139;48.114;11.442;2023-05-07T10:10:44;2.70;;;2.50;;
14121;SDS011;7139;48.114;11.442;2023-05-07T10:13:12;2.72;;;2.50;;
14121;SDS011;7139;48.114;11.442;2023-05-07T10:15:40;5.15;;;2.78;;
14121;SDS011;7139;48.114;11.442;2023-05-07T10:18:07;2.45;;;2.25;;
14121;SDS011;7139;48.114;11.442;2023-05-07T10:20:34;4.68;;;4.28;;
14121;SDS011;7139;48.114;11.442;2023-05-07T10:23:03;3.80;;;3.40;;
14121;SDS011;7139;48.114;11.442;2023-05-07T10:25:31;3.53;;;3.20;;
14121;SDS011;7139;48.114;11.442;2023-05-07T10:27:59;3.28;;;3.08;;
14121;SDS011;7139;48.114;11.442;2023-05-07T10:30:33;4.95;;;3.05;;
14121;SDS011;7139;48.114;11.442;2023-05-07T10:33:13;3.22;;;2.92;;
14121;SDS011;7139;48.114;11.442;2023-05-07T10:35:43;4.05;;;2.95;;
14121;SDS011;7139;48.114;11.442;2023-05-07T10:38:12;7.00;;;6.50;;
14121;SDS011;7139;48.114;11.442;2023-05-07T10:40:39;10.45;;;8.93;;
14121;SDS011;7139;48.114;11.442;2023-05-07T10:43:06;6.22;;;5.70;;
14121;SDS011;7139;48.114;11.442;2023-05-07T10:45:33;11.30;;;10.10;;
14121;SDS011;7139;48.114;11.442;2023-05-07T10:48:11;9.95;;;8.90;;
14121;SDS011;7139;48.114;11.442;2023-05-07T10:50:39;11.38;;;10.20;;
14121;SDS011;7139;48.114;11.442;2023-05-07T10:53:22;8.27;;;7.43;;
14121;SDS011;7139;48.114;11.442;2023-05-07T10:58:52;9.23;;;8.43;;
14121;SDS011;7139;48.114;11.442;2023-05-07T11:04:18;4.60;;;4.03;;
14121;SDS011;7139;48.114;11.442;2023-05-07T11:09:57;6.90;;;6.28;;
14121;SDS011;7139;48.114;11.442;2023-05-07T11:12:48;6.15;;;5.55;;
14121;SDS011;7139;48.114;11.442;2023-05-07T11:17:59;3.50;;;2.40;;
14121;SDS011;7139;48.114;11.442;2023-05-07T11:26:23;2.50;;;2.28;;
14121;SDS011;7139;48.114;11.442;2023-05-07T11:28:51;3.08;;;2.28;;
14121;SDS011;7139;48.114;11.442;2023-05-07T11:31:20;2.45;;;2.13;;
14121;SDS011;7139;48.114;11.442;2023-05-07T11:33:48;3.08;;;2.42;;
14121;SDS011;7139;48.114;11.442;2023-05-07T11:36:17;2.30;;;2.20;;
14121;SDS011;7139;48.114;11.442;2023-05-07T11:38:45;2.42;;;2.22;;
14121;SDS011;7139;48.114;11.442;2023-05-07T11:41:12;2.20;;;2.10;;
14121;SDS011;7139;48.114;11.442;2023-05-07T11:43:49;2.95;;;2.10;;
14121;SDS011;7139;48.114;11.442;2023-05-07T11:46:20;2.65;;;2.40;;
14121;SDS011;7139;48.114;11.442;2023-05-07T11:48:47;4.90;;;2.53;;
14121;SDS011;7139;48.114;11.442;2023-05-07T11:51:19;3.00;;;2.25;;
14121;SDS011;7139;48.114;11.442;2023-05-07T11:53:46;2.78;;;2.25;;
14121;SDS011;7139;48.114;11.442;2023-05-07T11:56:14;4.47;;;2.53;;
14121;SDS011;7139;48.114;11.442;2023-05-07T11:58:42;3.38;;;2.20;;
14121;SDS011;7139;48.114;11.442;2023-05-07T12:01:10;2.53;;;2.33;;
14121;SDS011;7139;48.114;11.442;2023-05-07T12:03:39;2.40;;;2.20;;
14121;SDS011;7139;48.114;11.442;2023-05-07T12:06:08;3.33;;;2.67;;
14121;SDS011;7139;48.114;11.442;2023-05-07T12:08:37;2.83;;;2.45;;
14121;SDS011;7139;48.114;11.442;2023-05-07T12:11:06;2.92;;;2.47;;
14121;SDS011;7139;48.114;11.442;2023-05-07T12:13:34;5.00;;;2.78;;
14121;SDS011;7139;48.114;11.442;2023-05-07T12:16:01;3.28;;;2.42;;
14121;SDS011;7139;48.114;11.442;2023-05-07T12:18:30;2.97;;;2.60;;
14121;SDS011;7139;48.114;11.442;2023-05-07T12:20:57;2.55;;;2.25;;
14121;SDS011;7139;48.114;11.442;2023-05-07T12:23:25;2.58;;;2.30;;
14121;SDS011;7139;48.114;11.442;2023-05-07T12:25:53;2.53;;;2.33;;
14121;SDS011;7139;48.114;11.442;2023-05-07T12:28:20;3.35;;;2.70;;
14121;SDS011;7139;48.114;11.442;2023-05-07T12:30:47;2.88;;;2.00;;
14121;SDS011;7139;48.114;11.442;2023-05-07T12:33:16;2.63;;;2.42;;
14121;SDS011;7139;48.114;11.442;2023-05-07T12:35:43;4.78;;;2.60;;
14121;SDS011;7139;48.114;11.442;2023-05-07T12:38:11;4.32;;;2.70;;
14121;SDS011;7139;48.114;11.442;2023-05-07T12:40:39;2.75;;;2.55;;
14121;SDS011;7139;48.114;11.442;2023-05-07T12:43:08;2.92;;;2.70;;
14121;SDS011;7139;48.114;11.442;2023-05-07T12:45:42;5.65;;;2.53;;
14121;SDS011;7139;48.114;11.442;2023-05-07T12:48:10;5.07;;;2.60;;
14121;SDS011;7139;48.114;11.442;2023-05-07T12:50:37;3.72;;;2.50;;
14121;SDS011;7139;48.114;11.442;2023-05-07T12:53:04;2.83;;;2.30;;
14121;SDS011;7139;48.114;11.442;2023-05-07T12:55:39;2.92;;;2.63;;
14121;SDS011;7139;48.114;11.442;2023-05-07T12:58:08;2.92;;;2.60;;
14121;SDS011;7139;48.114;11.442;2023-05-07T13:00:42;7.13;;;2.83;;
14121;SDS011;7139;48.114;11.442;2023-05-07T13:03:09;3.28;;;2.60;;
14121;SDS011;7139;48.114;11.442;2023-05-07T13:05:36;2.83;;;2.53;;
14121;SDS011;7139;48.114;11.442;2023-05-07T13:08:03;3.22;;;2.40;;
14121;SDS011;7139;48.114;11.442;2023-05-07T13:10:30;3.15;;;2.28;;
14121;SDS011;7139;48.114;11.442;2023-05-07T13:12:57;4.28;;;2.38;;
14121;SDS011;7139;48.114;11.442;2023-05-07T13:15:26;3.95;;;2.70;;
14121;SDS011;7139;48.114;11.442;2023-05-07T13:17:53;2.83;;;2.40;;
14121;SDS011;7139;48.114;11.442;2023-05-07T13:20:20;2.25;;;2.05;;
14121;SDS011;7139;48.114;11.442;2023-05-07T13:22:47;2.60;;;2.40;;
14121;SDS011;7139;48.114;11.442;2023-05-07T13:25:13;2.60;;;2.40;;
14121;SDS011;7139;48.114;11.442;2023-05-07T13:27:40;4.63;;;2.90;;
14121;SDS011;7139;48.114;11.442;2023-05-07T13:30:07;3.40;;;2.40;;
14121;SDS011;7139;48.114;11.442;2023-05-07T13:32:35;2.70;;;2.35;;
14121;SDS011;7139;48.114;11.442;2023-05-07T13:35:02;3.30;;;2.50;;
14121;SDS011;7139;48.114;11.442;2023-05-07T13:37:29;2.83;;;2.20;;
14121;SDS011;7139;48.114;11.442;2023-05-07T13:39:56;2.55;;;2.35;;
14121;SDS011;7139;48.114;11.442;2023-05-07T13:42:23;2.97;;;2.42;;
14121;SDS011;7139;48.114;11.442;2023-05-07T13:44:49;3.38;;;2.50;;
14121;SDS011;7139;48.114;11.442;2023-05-07T13:47:16;3.85;;;2.10;;
14121;SDS011;7139;48.114;11.442;2023-05-07T13:49:44;3.10;;;2.20;;
14121;SDS011;7139;48.114;11.442;2023-05-07T13:52:11;3.60;;;2.20;;
14121;SDS011;7139;48.114;11.442;2023-05-07T13:54:38;2.80;;;2.30;;
14121;SDS011;7139;48.114;11.442;2023-05-07T13:57:05;2.38;;;2.17;;
14121;SDS011;7139;48.114;11.442;2023-05-07T13:59:32;3.78;;;2.22;;
14121;SDS011;7139;48.114;11.442;2023-05-07T14:01:58;2.20;;;2.00;;
14121;SDS011;7139;48.114;11.442;2023-05-07T14:04:25;2.35;;;2.15;;
14121;SDS011;7139;48.114;11.442;2023-05-07T14:06:53;3.00;;;2.15;;
14121;SDS011;7139;48.114;11.442;2023-05-07T14:09:20;2.45;;;2.17;;
14121;SDS011;7139;48.114;11.442;2023-05-07T14:11:47;2.53;;;2.33;;
14121;SDS011;7139;48.114;11.442;2023-05-07T14:14:16;2.72;;;2.00;;
14121;SDS011;7139;48.114;11.442;2023-05-07T14:16:43;2.65;;;2.40;;
14121;SDS011;7139;48.114;11.442;2023-05-07T14:19:10;3.60;;;2.50;;
14121;SDS011;7139;48.114;11.442;2023-05-07T14:21:37;2.20;;;2.03;;
14121;SDS011;7139;48.114;11.442;2023-05-07T14:24:06;2.53;;;2.20;;
14121;SDS011;7139;48.114;11.442;2023-05-07T14:26:33;5.18;;;2.15;;
14121;SDS011;7139;48.114;11.442;2023-05-07T14:29:00;3.30;;;2.40;;
14121;SDS011;7139;48.114;11.442;2023-05-07T14:31:27;2.38;;;2.17;;
14121;SDS011;7139;48.114;11.442;2023-05-07T14:33:54;3.05;;;2.25;;
14121;SDS011;7139;48.114;11.442;2023-05-07T14:36:22;2.55;;;2.10;;
14121;SDS011;7139;48.114;11.442;2023-05-07T14:38:51;3.05;;;2.20;;
14121;SDS011;7139;48.114;11.442;2023-05-07T14:41:19;2.30;;;2.00;;
14121;SDS011;7139;48.114;11.442;2023-05-07T14:43:46;2.00;;;1.90;;
14121;SDS011;7139;48.114;11.442;2023-05-07T14:46:16;2.90;;;2.08;;
14121;SDS011;7139;48.114;11.442;2023-05-07T14:48:43;2.33;;;2.13;;
14121;SDS011;7139;48.114;11.442;2023-05-07T14:51:11;2.20;;;2.00;;
14121;SDS011;7139;48.114;11.442;2023-05-07T14:53:38;2.50;;;2.30;;
14121;SDS011;7139;48.114;11.442;2023-05-07T14:56:04;2.42;;;2.22;;
14121;SDS011;7139;48.114;11.442;2023-05-07T14:58:33;2.88;;;2.50;;
14121;SDS011;7139;48.114;11.442;2023-05-07T15:01:00;2.47;;;2.03;;
14121;SDS011;7139;48.114;11.442;2023-05-07T15:03:27;2.90;;;2.47;;
14121;SDS011;7139;48.114;11.442;2023-05-07T15:05:54;3.42;;;2.70;;
14121;SDS011;7139;48.114;11.442;2023-05-07T15:08:21;2.83;;;2.60;;
14121;SDS011;7139;48.114;11.442;2023-05-07T15:10:48;4.72;;;2.38;;